Broadview, Montana
Current Conditions -  °F | °C
As of 1:53 AM on Monday 24 Nov 2014 (Local Time) from KBIL Reporting Station
Overcast Overcast  
Wind Chill: 28°   Ceiling: 9500
Heat Index: 39°   Visibility: 10mi
Dew Point: 22°   Wind: 24mph
Humidity: 50%   Direction: 290°WNW
Pressure: 29.81"   Gusts: 31mph
Location:  46.1°N, 108.88°W
Report Text: KBIL 240853Z 29021G27KT 10SM BKN095 OVC110 04/M06 A2981 RMK AO2 PK WND 26031/0800 SLP106 T00391056 55004 $
Loading
Personal Weather Stations






























Interactive Weather Map New forecast layout! Learn more

10-Day Weather Forecast

Advertisements
Track Severe Weather on mobile